Time;durP1;ratioP1;P1;durP2;ratioP2;P2;SDS_P1;SDS_P2;PMS_P1;PMS_P2;Temp;Humidity;BMP_temperature;BMP_pressure;BME280_temperature;BME280_humidity;BME280_pressure;Samples;Min_cycle;Max_cycle;Signal;HPM_P1;HPM_P2
2021/05/13 00:00:33;;;;;;;0.70;0.70;;;;;;;10.27;100.00;99584.56;4991620;28;20450;-56
2021/05/13 00:03:00;;;;;;;0.40;0.30;;;;;;;10.04;100.00;99576.59;4991692;28;20553;-56
2021/05/13 00:05:27;;;;;;;0.30;0.20;;;;;;;10.18;100.00;99574.28;4991554;28;20503;-55
2021/05/13 00:07:53;;;;;;;0.30;0.20;;;;;;;9.90;100.00;99576.25;4991420;28;20448;-56
2021/05/13 00:10:23;;;;;;;0.30;0.20;;;;;;;9.94;100.00;99577.88;4990273;28;20461;-56
2021/05/13 00:15:25;;;;;;;0.30;0.20;;;;;;;9.70;100.00;99579.63;4979502;28;20497;-55
2021/05/13 00:17:53;;;;;;;0.30;0.20;;;;;;;9.67;100.00;99582.41;4990063;28;20473;-56
2021/05/13 00:20:23;;;;;;;0.30;0.20;;;;;;;9.80;100.00;99583.69;4981204;28;20449;-56
2021/05/13 00:22:51;;;;;;;0.30;0.20;;;;;;;9.59;100.00;99572.03;4991425;28;20489;-56
2021/05/13 00:25:18;;;;;;;0.30;0.20;;;;;;;9.46;100.00;99573.44;4993470;28;20445;-56
2021/05/13 00:27:45;;;;;;;0.43;0.40;;;;;;;9.56;100.00;99568.66;4995836;28;20477;-56
2021/05/13 00:30:13;;;;;;;0.30;0.20;;;;;;;9.56;100.00;99568.66;4995091;28;20454;-56
2021/05/13 00:32:40;;;;;;;0.60;0.60;;;;;;;9.42;100.00;99575.31;4994939;28;20935;-56
2021/05/13 00:35:12;;;;;;;0.60;0.60;;;;;;;9.39;100.00;99571.91;4994821;28;20556;-56
2021/05/13 00:37:39;;;;;;;0.30;0.20;;;;;;;9.40;100.00;99574.50;4994765;28;20456;-56
2021/05/13 00:40:08;;;;;;;0.30;0.20;;;;;;;9.40;100.00;99574.50;4994860;28;20502;-56
2021/05/13 00:42:34;;;;;;;0.30;0.20;;;;;;;9.25;100.00;99568.88;4994851;28;20879;-55
2021/05/13 00:45:02;;;;;;;0.40;0.20;;;;;;;9.10;100.00;99568.47;4994404;28;20477;-56
2021/05/13 00:47:29;;;;;;;0.30;0.20;;;;;;;9.01;100.00;99576.75;4994951;28;20453;-55
2021/05/13 00:49:56;;;;;;;0.73;0.73;;;;;;;9.16;100.00;99576.22;4974131;28;20462;-55
2021/05/13 00:52:24;;;;;;;0.30;0.20;;;;;;;9.08;100.00;99577.41;4984396;28;20465;-55
2021/05/13 00:54:51;;;;;;;0.30;0.20;;;;;;;8.95;100.00;99566.34;4991477;28;20493;-55
2021/05/13 00:57:18;;;;;;;0.30;0.20;;;;;;;9.04;100.00;99571.31;4994569;28;20453;-56
2021/05/13 00:59:48;;;;;;;0.30;0.20;;;;;;;9.01;100.00;99576.75;4994439;28;20508;-56
2021/05/13 01:02:15;;;;;;;0.40;0.40;;;;;;;8.97;100.00;99569.81;4994555;28;20516;-56
2021/05/13 01:04:41;;;;;;;0.30;0.20;;;;;;;9.03;100.00;99564.28;4994055;28;20469;-56
2021/05/13 01:07:10;;;;;;;0.30;0.20;;;;;;;8.98;100.00;99570.69;4994220;28;20457;-55
2021/05/13 01:09:37;;;;;;;0.30;0.20;;;;;;;8.98;100.00;99562.72;4994296;28;20456;-55
2021/05/13 01:12:09;;;;;;;0.30;0.20;;;;;;;8.99;100.00;99561.81;4994852;28;20931;-55
2021/05/13 01:19:49;;;;;;;1.43;0.93;;;;;;;9.03;100.00;99552.81;4994125;28;20502;-55
2021/05/13 01:22:17;;;;;;;0.30;0.20;;;;;;;8.86;100.00;99553.41;4993995;28;20935;-55
2021/05/13 01:24:44;;;;;;;0.80;0.80;;;;;;;8.79;100.00;99546.59;4993885;28;20473;-56
2021/05/13 01:27:11;;;;;;;1.23;1.23;;;;;;;8.65;100.00;99551.47;4993837;28;20457;-56
2021/05/13 01:29:48;;;;;;;0.73;0.73;;;;;;;8.78;100.00;99542.22;4993939;28;20528;-55
2021/05/13 01:32:16;;;;;;;0.40;0.30;;;;;;;8.60;100.00;99541.88;4993960;28;20472;-55
2021/05/13 01:34:43;;;;;;;0.30;0.20;;;;;;;8.56;100.00;99547.34;4993584;28;20800;-55
2021/05/13 01:37:10;;;;;;;3.80;1.50;;;;;;;8.66;100.00;99546.13;4993694;28;20461;-55
2021/05/13 01:39:37;;;;;;;0.40;0.30;;;;;;;8.68;100.00;99541.66;4993637;28;20457;-55
2021/05/13 01:42:04;;;;;;;0.30;0.20;;;;;;;8.74;100.00;99540.56;4993464;28;20449;-55
2021/05/13 01:44:30;;;;;;;0.30;0.20;;;;;;;8.94;100.00;99539.91;4993264;28;20481;-56
2021/05/13 01:46:57;;;;;;;0.30;0.20;;;;;;;8.70;100.00;99534.50;4993776;28;20499;-55
2021/05/13 01:49:26;;;;;;;0.30;0.20;;;;;;;8.59;100.00;99526.91;4993503;28;20461;-56
2021/05/13 01:51:52;;;;;;;0.40;0.30;;;;;;;8.64;100.00;99520.59;4992774;28;20455;-56
2021/05/13 01:54:20;;;;;;;0.40;0.30;;;;;;;8.70;100.00;99518.59;4985897;28;20494;-55
2021/05/13 01:56:47;;;;;;;0.30;0.20;;;;;;;8.94;100.00;99516.91;4993658;28;20445;-55
2021/05/13 01:59:15;;;;;;;0.30;0.20;;;;;;;8.79;100.00;99523.59;4994088;28;20472;-55
2021/05/13 02:01:41;;;;;;;0.30;0.20;;;;;;;8.77;100.00;99519.25;4993325;28;21002;-56
2021/05/13 02:04:08;;;;;;;0.30;0.20;;;;;;;8.60;100.00;99522.47;4993148;28;21035;-56
2021/05/13 02:06:35;;;;;;;0.30;0.20;;;;;;;8.39;100.00;99521.41;4993294;28;20516;-55
2021/05/13 02:09:02;;;;;;;0.30;0.20;;;;;;;8.64;100.00;99523.25;4993068;28;20954;-57
2021/05/13 02:11:29;;;;;;;0.33;0.20;;;;;;;8.54;100.00;99527.97;4973661;28;20458;-56
2021/05/13 02:13:55;;;;;;;0.30;0.20;;;;;;;8.42;100.00;99525.72;4986598;28;20510;-56
2021/05/13 02:16:22;;;;;;;0.30;0.20;;;;;;;8.57;100.00;99515.50;4973775;28;20834;-56
2021/05/13 02:18:49;;;;;;;0.47;0.20;;;;;;;8.53;100.00;99526.25;4986638;28;20453;-56
2021/05/13 02:21:16;;;;;;;0.30;0.20;;;;;;;8.63;100.00;99518.84;4992914;28;20453;-55
2021/05/13 02:23:43;;;;;;;0.33;0.20;;;;;;;8.54;100.00;99522.69;4992694;28;20660;-55
2021/05/13 02:26:09;;;;;;;0.30;0.20;;;;;;;8.63;100.00;99517.06;4992674;28;20472;-56
2021/05/13 02:28:36;;;;;;;0.30;0.20;;;;;;;8.65;100.00;99519.69;4993435;28;20600;-56
2021/05/13 02:31:03;;;;;;;0.30;0.20;;;;;;;8.54;100.00;99520.03;4993071;28;20459;-56
2021/05/13 02:33:29;;;;;;;0.30;0.20;;;;;;;8.27;100.00;99511.16;4993001;28;20537;-56
2021/05/13 02:35:56;;;;;;;0.30;0.20;;;;;;;8.31;100.00;99518.94;4993149;28;20572;-56
2021/05/13 02:38:23;;;;;;;0.30;0.20;;;;;;;8.22;100.00;99519.25;4993079;28;20939;-55
2021/05/13 02:40:49;;;;;;;0.30;0.20;;;;;;;8.51;100.00;99522.78;4992808;28;20503;-56
2021/05/13 02:43:16;;;;;;;0.30;0.20;;;;;;;8.67;100.00;99518.72;4993453;28;20477;-56
2021/05/13 02:45:42;;;;;;;0.40;0.30;;;;;;;8.45;100.00;99523.84;4976293;28;20442;-56
2021/05/13 02:48:09;;;;;;;0.30;0.20;;;;;;;8.42;100.00;99523.94;4992051;28;20519;-55
2021/05/13 02:50:36;;;;;;;0.40;0.40;;;;;;;8.47;100.00;99529.09;4992945;28;20461;-56
2021/05/13 02:53:02;;;;;;;0.30;0.20;;;;;;;8.47;100.00;99524.66;4984135;28;20478;-56
2021/05/13 02:55:29;;;;;;;0.30;0.20;;;;;;;8.37;100.00;99523.25;4992412;28;20497;-55
2021/05/13 02:57:59;;;;;;;0.30;0.20;;;;;;;8.28;100.00;99521.69;4992182;28;20460;-55
2021/05/13 03:00:32;;;;;;;0.30;0.20;;;;;;;8.17;100.00;99523.81;4992863;28;20450;-55
2021/05/13 03:02:59;;;;;;;0.30;0.27;;;;;;;8.42;100.00;99515.13;4993066;28;20453;-55
2021/05/13 03:05:27;;;;;;;0.30;0.20;;;;;;;8.31;100.00;99518.94;4992856;28;20453;-55
2021/05/13 03:07:57;;;;;;;0.30;0.20;;;;;;;8.30;100.00;99514.56;4992985;28;20996;-55
2021/05/13 03:12:54;;;;;;;0.30;0.20;;;;;;;8.19;100.00;99519.34;4992084;28;20453;-55
2021/05/13 03:15:21;;;;;;;0.30;0.20;;;;;;;7.94;100.00;99511.28;4992253;28;20493;-56
2021/05/13 03:17:49;;;;;;;0.30;0.20;;;;;;;7.91;100.00;99507.88;4991934;28;20461;-55
2021/05/13 03:20:20;;;;;;;0.30;0.27;;;;;;;7.89;100.00;99510.56;4991924;28;20449;-55
2021/05/13 03:22:50;;;;;;;0.30;0.20;;;;;;;7.87;100.00;99504.47;4991937;28;20456;-55
2021/05/13 03:25:24;;;;;;;0.30;0.20;;;;;;;8.04;100.00;99506.59;4991967;28;20446;-55
2021/05/13 03:27:54;;;;;;;0.30;0.20;;;;;;;7.97;100.00;99500.63;4992229;28;20449;-55
2021/05/13 03:30:24;;;;;;;3.13;1.17;;;;;;;8.00;100.00;99505.81;4992070;28;20461;-56
2021/05/13 03:32:52;;;;;;;0.30;0.20;;;;;;;7.99;100.00;99493.50;4991680;28;20799;-55
2021/05/13 03:35:18;;;;;;;0.30;0.20;;;;;;;7.97;100.00;99491.81;4991928;28;20836;-56
2021/05/13 03:37:45;;;;;;;0.30;0.20;;;;;;;7.87;100.00;99496.53;4992030;28;20500;-55
2021/05/13 03:40:13;;;;;;;0.30;0.20;;;;;;;7.84;100.00;99496.63;4991787;28;20449;-55
2021/05/13 03:42:39;;;;;;;0.30;0.20;;;;;;;7.86;100.00;99492.16;4991910;28;20470;-55
2021/05/13 03:45:06;;;;;;;0.30;0.20;;;;;;;7.81;100.00;99491.44;4991726;28;20844;-56
2021/05/13 03:47:33;;;;;;;0.30;0.20;;;;;;;7.86;100.00;99483.34;4991649;28;20873;-56
2021/05/13 03:50:00;;;;;;;0.30;0.20;;;;;;;7.66;100.00;99483.94;4991896;28;20511;-55
2021/05/13 03:52:27;;;;;;;0.30;0.20;;;;;;;7.61;100.00;99476.13;4986067;28;20462;-56
2021/05/13 03:54:54;;;;;;;0.30;0.20;;;;;;;7.48;100.00;99480.06;4988751;28;21056;-55
2021/05/13 03:57:20;;;;;;;0.30;0.20;;;;;;;7.56;100.00;99479.84;4991854;28;20453;-55
2021/05/13 03:59:48;;;;;;;0.40;0.30;;;;;;;7.57;100.00;99478.94;4995196;28;20499;-55
2021/05/13 04:04:52;;;;;;;0.30;0.20;;;;;;;7.68;100.00;99471.56;4995592;28;20527;-55
2021/05/13 04:07:19;;;;;;;0.30;0.20;;;;;;;7.70;100.00;99473.22;4994110;28;21010;-56
2021/05/13 04:09:47;;;;;;;0.30;0.20;;;;;;;7.86;100.00;99470.97;4995166;28;20457;-54
2021/05/13 04:12:14;;;;;;;0.30;0.20;;;;;;;7.91;100.00;99479.63;4995692;28;20507;-55
2021/05/13 04:14:41;;;;;;;0.30;0.20;;;;;;;7.94;100.00;99474.22;4995696;28;20493;-54
2021/05/13 04:17:08;;;;;;;0.30;0.20;;;;;;;7.94;100.00;99473.38;4995305;28;20453;-55
2021/05/13 04:19:35;;;;;;;0.30;0.20;;;;;;;8.09;100.00;99464.13;4995302;28;20537;-56
2021/05/13 04:22:03;;;;;;;0.83;0.80;;;;;;;7.88;100.00;99468.28;4978081;28;20526;-56
2021/05/13 04:24:30;;;;;;;0.30;0.20;;;;;;;7.96;100.00;99467.16;4975947;28;20474;-55
2021/05/13 04:26:57;;;;;;;0.30;0.20;;;;;;;8.06;100.00;99467.69;4988911;28;20454;-56
2021/05/13 04:29:24;;;;;;;0.40;0.40;;;;;;;7.90;100.00;99466.44;4995260;28;20536;-55
2021/05/13 04:31:51;;;;;;;0.30;0.20;;;;;;;7.92;100.00;99470.78;4995006;28;20488;-55
2021/05/13 04:34:18;;;;;;;0.30;0.20;;;;;;;8.17;100.00;99473.53;4994950;28;20473;-56
2021/05/13 04:36:44;;;;;;;0.30;0.20;;;;;;;8.31;100.00;99466.00;4994871;28;20489;-56
2021/05/13 04:39:11;;;;;;;0.30;0.20;;;;;;;8.46;100.00;99472.59;4994914;28;20449;-56
2021/05/13 04:41:40;;;;;;;0.30;0.20;;;;;;;8.61;100.00;99471.22;4994507;28;20457;-56
2021/05/13 04:44:07;;;;;;;0.30;0.20;;;;;;;9.05;100.00;99463.53;4994736;28;20512;-55
2021/05/13 04:46:35;;;;;;;0.70;0.70;;;;;;;10.03;100.00;99472.19;4994709;28;20441;-55
2021/05/13 04:51:36;;;;;;;0.30;0.20;;;;;;;11.02;100.00;99469.00;4987153;28;20960;-55
2021/05/13 04:54:03;;;;;;;0.30;0.20;;;;;;;11.50;99.67;99463.28;4984904;28;20481;-56
2021/05/13 04:56:31;;;;;;;0.30;0.20;;;;;;;11.64;97.83;99460.84;4976943;28;20497;-56
2021/05/13 04:58:58;;;;;;;0.30;0.20;;;;;;;11.83;97.04;99456.44;4995120;28;20449;-56
2021/05/13 05:01:26;;;;;;;0.30;0.20;;;;;;;11.94;96.64;99449.75;4994798;28;20457;-56
2021/05/13 05:03:53;;;;;;;0.30;0.20;;;;;;;12.39;95.14;99452.84;4994437;28;20544;-56
2021/05/13 05:06:19;;;;;;;0.30;0.20;;;;;;;12.65;93.77;99453.34;4994270;28;20947;-56
2021/05/13 05:08:46;;;;;;;0.30;0.20;;;;;;;13.18;92.08;99455.94;4994331;28;21013;-56
2021/05/13 05:11:15;;;;;;;0.40;0.20;;;;;;;13.57;88.61;99466.31;4993734;28;20457;-56
2021/05/13 05:13:42;;;;;;;0.40;0.20;;;;;;;12.93;90.67;99460.78;4976811;28;20847;-57
2021/05/13 05:16:09;;;;;;;0.40;0.20;;;;;;;13.04;91.42;99466.44;4994299;28;20892;-55
2021/05/13 05:18:36;;;;;;;0.30;0.20;;;;;;;13.46;91.16;99468.69;4994387;28;20450;-56
2021/05/13 05:21:02;;;;;;;0.30;0.20;;;;;;;13.53;89.66;99464.72;4994096;28;20457;-55
2021/05/13 05:23:29;;;;;;;0.30;0.20;;;;;;;13.64;89.86;99458.81;4994378;28;20465;-56
2021/05/13 05:25:57;;;;;;;0.30;0.20;;;;;;;13.31;89.32;99461.50;4977280;28;20450;-56
2021/05/13 05:28:25;;;;;;;0.30;0.20;;;;;;;13.57;89.22;99455.63;4982797;28;20458;-55
2021/05/13 05:30:52;;;;;;;0.40;0.30;;;;;;;13.49;88.61;99460.50;4993490;28;20449;-55
2021/05/13 05:33:19;;;;;;;1.93;1.03;;;;;;;13.94;88.51;99453.56;4994403;28;20477;-55
2021/05/13 05:35:47;;;;;;;0.40;0.20;;;;;;;14.21;88.37;99453.84;4994078;28;20919;-54
2021/05/13 05:38:13;;;;;;;2.50;2.30;;;;;;;13.81;89.66;99445.38;4994651;28;20489;-54
2021/05/13 05:40:40;;;;;;;0.30;0.20;;;;;;;13.90;89.48;99444.03;4994462;28;20453;-55
2021/05/13 05:43:07;;;;;;;0.40;0.20;;;;;;;14.09;89.53;99447.38;4994329;28;20474;-54
2021/05/13 05:45:34;;;;;;;0.40;0.20;;;;;;;14.52;86.92;99451.16;4995383;28;20862;-55
2021/05/13 05:48:01;;;;;;;0.30;0.20;;;;;;;14.42;87.88;99452.63;4986253;28;20504;-55
2021/05/13 05:50:30;;;;;;;0.40;0.20;;;;;;;14.67;87.19;99446.75;4977057;28;20577;-55
2021/05/13 05:52:57;;;;;;;0.30;0.20;;;;;;;14.78;87.46;99441.59;4985619;28;20504;-55
2021/05/13 05:55:24;;;;;;;0.30;0.20;;;;;;;14.44;87.73;99436.50;4994140;28;20492;-55
2021/05/13 05:57:50;;;;;;;0.40;0.20;;;;;;;14.54;87.57;99436.84;4993806;28;20454;-55
2021/05/13 06:00:18;;;;;;;0.40;0.20;;;;;;;14.92;86.75;99435.41;4993061;28;20453;-54
2021/05/13 06:02:46;;;;;;;0.40;0.20;;;;;;;15.03;86.02;99430.28;4993557;28;20468;-55
2021/05/13 06:05:14;;;;;;;0.37;0.20;;;;;;;15.40;84.78;99431.56;4994086;28;20847;-55
2021/05/13 06:07:43;;;;;;;0.40;0.30;;;;;;;15.08;86.40;99428.22;4993708;28;20449;-55
2021/05/13 06:10:11;;;;;;;0.40;0.20;;;;;;;15.25;87.38;99437.88;4993794;28;20449;-54
2021/05/13 06:12:39;;;;;;;0.40;0.20;;;;;;;15.15;86.80;99431.34;4993337;28;20799;-54
2021/05/13 06:15:09;;;;;;;0.40;0.20;;;;;;;15.50;86.83;99434.53;4993506;28;20492;-55
2021/05/13 06:17:36;;;;;;;0.40;0.20;;;;;;;15.49;87.01;99445.31;4993783;28;20515;-55
2021/05/13 06:20:05;;;;;;;0.40;0.20;;;;;;;15.16;87.73;99440.25;4994289;28;20458;-55
2021/05/13 06:22:32;;;;;;;0.40;0.20;;;;;;;14.75;89.02;99436.44;4993175;28;20454;-55
2021/05/13 06:24:59;;;;;;;0.40;0.30;;;;;;;15.50;88.02;99442.56;4993075;28;20480;-55
2021/05/13 06:27:26;;;;;;;0.40;0.20;;;;;;;14.99;89.23;99442.13;4992933;28;20446;-54
2021/05/13 06:29:53;;;;;;;0.40;0.30;;;;;;;15.51;87.01;99430.03;4992871;28;20947;-56
2021/05/13 06:32:19;;;;;;;0.40;0.20;;;;;;;15.39;88.18;99434.34;4993396;28;20449;-56
2021/05/13 06:34:46;;;;;;;0.70;0.70;;;;;;;15.26;88.29;99425.34;4993016;28;20476;-57
2021/05/13 06:37:13;;;;;;;0.97;0.97;;;;;;;14.93;87.99;99426.44;4992580;28;20862;-54
2021/05/13 06:39:39;;;;;;;0.93;0.80;;;;;;;14.98;89.70;99424.34;4992926;28;20541;-55
2021/05/13 06:42:07;;;;;;;0.40;0.20;;;;;;;14.98;89.88;99423.50;4992606;28;20469;-55
2021/05/13 06:44:34;;;;;;;0.40;0.30;;;;;;;15.82;88.98;99421.81;4974929;28;20485;-55
2021/05/13 06:47:01;;;;;;;0.40;0.30;;;;;;;15.27;89.05;99427.06;4992576;28;20442;-56
2021/05/13 06:49:27;;;;;;;0.40;0.27;;;;;;;14.72;90.48;99423.25;4975523;28;20461;-54
2021/05/13 06:51:54;;;;;;;0.40;0.20;;;;;;;14.45;91.29;99412.34;4982595;28;20455;-54
2021/05/13 06:54:21;;;;;;;0.40;0.20;;;;;;;14.61;91.83;99422.16;4985378;28;21022;-54
2021/05/13 06:56:48;;;;;;;0.40;0.20;;;;;;;15.05;88.76;99419.47;4992131;28;20485;-55
2021/05/13 06:59:16;;;;;;;0.40;0.20;;;;;;;14.70;88.87;99417.13;4992567;28;20458;-54
2021/05/13 07:01:42;;;;;;;0.40;0.20;;;;;;;14.78;90.58;99414.84;4992290;28;20501;-55
2021/05/13 07:04:09;;;;;;;0.40;0.20;;;;;;;14.72;91.13;99423.25;4992364;28;20564;-55
2021/05/13 07:06:37;;;;;;;0.30;0.20;;;;;;;14.67;92.70;99422.66;4992179;28;20544;-55
2021/05/13 07:09:05;;;;;;;0.40;0.20;;;;;;;15.97;89.11;99425.31;4992250;28;20507;-55
2021/05/13 07:11:33;;;;;;;0.53;0.53;;;;;;;15.70;89.05;99425.28;4972694;28;20889;-56
2021/05/13 07:14:00;;;;;;;0.40;0.20;;;;;;;15.19;88.27;99427.53;4986321;28;20477;-56
2021/05/13 07:16:27;;;;;;;0.40;0.20;;;;;;;16.06;87.68;99421.19;4992373;28;20520;-55
2021/05/13 07:18:54;;;;;;;12.27;4.73;;;;;;;15.62;87.94;99423.09;4990905;28;20557;-55
2021/05/13 07:21:22;;;;;;;0.40;0.20;;;;;;;15.33;89.60;99414.16;4992243;28;20459;-55
2021/05/13 07:23:49;;;;;;;0.40;0.20;;;;;;;15.52;88.64;99423.72;4973373;28;20469;-55
2021/05/13 07:26:15;;;;;;;0.30;0.20;;;;;;;14.94;91.12;99417.47;4980947;28;20453;-55
2021/05/13 07:28:44;;;;;;;0.40;0.20;;;;;;;15.35;89.04;99417.63;4992529;28;20488;-55
2021/05/13 07:31:11;;;;;;;0.40;0.20;;;;;;;15.50;90.17;99413.13;4992003;28;20450;-55
2021/05/13 07:33:38;;;;;;;0.40;0.20;;;;;;;15.28;90.08;99424.28;4977322;28;20483;-55
2021/05/13 07:36:06;;;;;;;0.50;0.47;;;;;;;15.53;90.00;99420.94;4998305;28;20499;-55
2021/05/13 07:38:34;;;;;;;0.40;0.30;;;;;;;15.28;90.89;99412.72;4998268;28;20822;-55
2021/05/13 07:41:03;;;;;;;0.40;0.30;;;;;;;15.75;89.93;99422.28;4998794;28;20532;-56
2021/05/13 07:43:30;;;;;;;0.60;0.60;;;;;;;15.48;90.19;99412.31;4998044;28;20893;-55
2021/05/13 07:45:57;;;;;;;0.40;0.40;;;;;;;15.50;91.42;99413.13;4998215;28;20462;-54
2021/05/13 07:48:26;;;;;;;0.37;0.20;;;;;;;15.70;89.74;99406.50;4980727;28;20827;-55
2021/05/13 07:50:54;;;;;;;0.40;0.20;;;;;;;16.32;88.69;99406.09;4999978;28;20922;-56
2021/05/13 07:53:22;;;;;;;1.70;1.60;;;;;;;16.31;88.85;99405.22;4987274;28;20473;-55
2021/05/13 07:55:48;;;;;;;0.70;0.70;;;;;;;17.04;86.50;99396.69;4998099;28;20885;-56
2021/05/13 07:58:15;;;;;;;0.40;0.30;;;;;;;16.74;86.89;99397.84;4980865;28;20449;-55
2021/05/13 08:00:42;;;;;;;0.40;0.20;;;;;;;16.92;85.21;99402.91;4998150;28;20461;-55
2021/05/13 08:03:09;;;;;;;0.57;0.57;;;;;;;17.06;85.54;99395.63;4980396;28;20468;-55
2021/05/13 08:05:35;;;;;;;0.40;0.20;;;;;;;17.02;84.84;99404.00;4986860;28;20450;-56
2021/05/13 08:08:03;;;;;;;0.40;0.20;;;;;;;17.25;84.33;99397.88;4996033;28;20460;-55
2021/05/13 08:10:30;;;;;;;0.40;0.20;;;;;;;17.40;83.31;99404.84;4998004;28;20496;-55
2021/05/13 08:12:57;;;;;;;0.40;0.20;;;;;;;16.94;82.41;99401.84;4997939;28;21005;-56
2021/05/13 08:15:24;;;;;;;0.40;0.20;;;;;;;17.16;82.29;99395.84;4981081;28;20468;-54
2021/05/13 08:17:51;;;;;;;0.40;0.30;;;;;;;17.10;82.25;99396.25;4985042;28;20528;-55
2021/05/13 08:20:18;;;;;;;0.40;0.30;;;;;;;17.65;81.87;99395.91;4997883;28;20868;-55
2021/05/13 08:22:48;;;;;;;0.40;0.40;;;;;;;17.03;82.58;99387.78;4998056;28;20465;-55
2021/05/13 08:25:20;;;;;;;0.40;0.20;;;;;;;17.10;79.45;99389.06;4998263;28;20449;-56
2021/05/13 08:27:48;;;;;;;0.40;0.30;;;;;;;17.82;76.09;99380.41;4998362;28;20446;-55
2021/05/13 08:30:15;;;;;;;0.40;0.20;;;;;;;17.52;78.82;99384.31;4980728;28;20460;-56
2021/05/13 08:32:42;;;;;;;4.67;1.40;;;;;;;17.61;77.98;99380.09;4997778;28;20556;-56
2021/05/13 08:35:09;;;;;;;0.40;0.20;;;;;;;17.31;77.21;99375.97;4997837;28;20457;-55
2021/05/13 08:37:36;;;;;;;0.80;0.80;;;;;;;17.17;78.16;99379.63;4980874;28;20484;-56
2021/05/13 08:40:04;;;;;;;0.40;0.30;;;;;;;17.57;76.98;99378.63;4998113;28;20475;-55
2021/05/13 08:42:31;;;;;;;0.63;0.57;;;;;;;17.46;76.81;99376.69;4997733;28;20459;-55
2021/05/13 08:44:59;;;;;;;0.40;0.20;;;;;;;18.25;77.52;99368.22;4995232;28;20481;-57
2021/05/13 08:47:25;;;;;;;0.40;0.20;;;;;;;18.03;76.78;99362.69;4994391;28;20480;-57
2021/05/13 08:49:52;;;;;;;0.50;0.50;;;;;;;18.32;76.95;99361.38;4981477;28;20521;-57
2021/05/13 08:52:21;;;;;;;0.43;0.37;;;;;;;19.33;73.92;99367.06;4990431;28;20501;-57
2021/05/13 08:54:59;;;;;;;0.40;0.30;;;;;;;18.65;74.91;99357.16;4991000;28;20452;-58
2021/05/13 08:57:26;;;;;;;0.40;0.20;;;;;;;19.36;74.46;99365.94;4994526;28;20839;-59
2021/05/13 08:59:54;;;;;;;0.40;0.20;;;;;;;19.28;70.26;99360.31;4994707;28;20457;-59
2021/05/13 09:02:22;;;;;;;0.40;0.20;;;;;;;19.36;70.86;99356.03;4995287;28;20457;-58
2021/05/13 09:04:53;;;;;;;0.40;0.20;;;;;;;19.37;70.79;99359.56;4994538;28;20505;-59
2021/05/13 09:07:23;;;;;;;0.40;0.20;;;;;;;19.43;69.56;99350.97;4977240;28;20457;-59
2021/05/13 09:09:56;;;;;;;0.40;0.20;;;;;;;18.68;68.04;99348.81;4976870;28;20453;-59
2021/05/13 09:12:34;;;;;;;0.50;0.40;;;;;;;19.38;63.17;99339.72;4981321;28;20476;-58
2021/05/13 09:15:10;;;;;;;0.50;0.40;;;;;;;19.79;63.23;99345.34;4994390;28;20570;-59
2021/05/13 09:17:41;;;;;;;0.40;0.20;;;;;;;19.93;60.90;99340.66;4994218;28;20496;-59
2021/05/13 09:20:31;;;;;;;0.40;0.30;;;;;;;20.20;56.30;99343.78;4994334;28;20445;-59
2021/05/13 09:23:16;;;;;;;0.40;0.20;;;;;;;19.65;56.86;99337.53;4969949;28;20465;-59
2021/05/13 09:26:04;;;;;;;0.40;0.20;;;;;;;20.30;54.35;99339.31;4991501;28;20450;-59
2021/05/13 09:28:31;;;;;;;0.50;0.50;;;;;;;20.31;54.26;99332.94;4995226;28;20454;-59
2021/05/13 09:30:58;;;;;;;0.40;0.20;;;;;;;20.63;51.36;99334.78;4995124;28;20457;-59
2021/05/13 09:33:41;;;;;;;0.40;0.20;;;;;;;19.66;53.51;99333.84;4994209;28;20444;-59
2021/05/13 09:36:25;;;;;;;0.40;0.20;;;;;;;20.82;54.00;99334.91;4994919;28;20490;-59
2021/05/13 09:38:52;;;;;;;0.40;0.20;;;;;;;20.46;51.51;99329.97;4994365;28;20457;-59
2021/05/13 09:41:35;;;;;;;0.40;0.20;;;;;;;20.69;53.48;99327.00;4994299;28;20508;-59
2021/05/13 09:44:22;;;;;;;0.40;0.20;;;;;;;21.01;52.26;99320.66;4993778;28;20497;-59
2021/05/13 09:46:48;;;;;;;0.40;0.20;;;;;;;21.22;54.56;99323.31;4977157;28;20446;-59
2021/05/13 09:49:16;;;;;;;0.40;0.20;;;;;;;21.20;54.34;99322.59;4994010;28;20549;-59
2021/05/13 09:51:42;;;;;;;0.40;0.30;;;;;;;20.65;53.97;99314.75;4994295;28;20462;-59
2021/05/13 09:54:15;;;;;;;0.40;0.30;;;;;;;20.36;55.39;99319.03;4984754;28;20816;-59
2021/05/13 09:56:59;;;;;;;0.40;0.30;;;;;;;20.27;58.90;99320.66;4992941;28;20613;-59
2021/05/13 09:59:35;;;;;;;0.40;0.30;;;;;;;19.78;59.20;99313.13;4993395;28;20453;-59
2021/05/13 10:02:06;;;;;;;0.50;0.40;;;;;;;19.71;59.02;99307.34;4993514;28;20420;-59
2021/05/13 10:04:33;;;;;;;0.40;0.20;;;;;;;19.51;60.94;99313.50;4993154;28;20855;-59
2021/05/13 10:07:00;;;;;;;0.40;0.20;;;;;;;20.01;60.02;99309.38;4993481;28;20425;-59
2021/05/13 10:09:27;;;;;;;0.40;0.20;;;;;;;20.40;57.14;99302.44;4993486;28;20536;-58
2021/05/13 10:11:59;;;;;;;0.50;0.40;;;;;;;20.10;57.71;99310.44;4993561;28;20453;-58
2021/05/13 10:14:27;;;;;;;0.40;0.27;;;;;;;19.77;58.23;99304.16;4993045;28;20476;-58
2021/05/13 10:16:57;;;;;;;0.40;0.30;;;;;;;19.44;57.04;99296.09;4992969;28;21006;-58
2021/05/13 10:19:42;;;;;;;0.40;0.20;;;;;;;19.50;57.49;99293.78;4975778;28;20442;-58
2021/05/13 10:22:13;;;;;;;0.40;0.20;;;;;;;19.68;57.55;99290.56;4992746;28;20449;-58
2021/05/13 10:24:41;;;;;;;0.40;0.20;;;;;;;18.79;57.67;99283.38;4975476;28;20477;-57
2021/05/13 10:27:19;;;;;;;0.87;0.77;;;;;;;18.88;59.38;99291.56;4992988;28;20537;-59
2021/05/13 10:30:01;;;;;;;0.40;0.20;;;;;;;18.63;60.51;99283.66;4976118;28;20420;-57
2021/05/13 10:32:32;;;;;;;0.40;0.20;;;;;;;18.82;61.21;99272.34;4980480;28;20532;-58
2021/05/13 10:35:06;;;;;;;0.40;0.20;;;;;;;18.69;60.73;99277.00;4993318;28;20470;-58
2021/05/13 10:37:39;;;;;;;0.40;0.20;;;;;;;19.19;61.95;99265.75;4973457;28;20496;-58
2021/05/13 10:40:11;;;;;;;0.40;0.30;;;;;;;19.30;61.78;99272.97;4986906;28;20450;-59
2021/05/13 10:42:40;;;;;;;0.40;0.20;;;;;;;19.38;62.86;99269.66;4994559;28;20469;-58
2021/05/13 10:45:30;;;;;;;0.40;0.20;;;;;;;19.81;60.29;99275.94;4992877;28;20512;-58
2021/05/13 10:48:23;;;;;;;0.50;0.40;;;;;;;19.79;59.43;99272.53;4992692;28;20524;-58
2021/05/13 10:50:52;;;;;;;0.40;0.20;;;;;;;20.16;59.17;99274.84;4976737;28;20450;-58
2021/05/13 10:53:33;;;;;;;0.40;0.30;;;;;;;20.44;58.71;99273.41;4982101;28;20485;-58
2021/05/13 10:56:23;;;;;;;0.40;0.20;;;;;;;20.68;57.17;99270.41;4975593;28;20454;-58
2021/05/13 10:58:58;;;;;;;0.80;0.80;;;;;;;20.52;57.05;99272.72;4973126;28;20912;-58
2021/05/13 11:01:28;;;;;;;0.40;0.27;;;;;;;20.19;57.64;99266.50;4990044;28;20451;-58
2021/05/13 11:04:23;;;;;;;0.40;0.20;;;;;;;20.96;55.71;99261.59;4992526;28;21058;-58
2021/05/13 11:06:51;;;;;;;0.40;0.20;;;;;;;21.41;51.77;99255.84;4979991;28;20430;-58
2021/05/13 11:12:13;;;;;;;0.40;0.30;;;;;;;20.79;54.83;99247.88;4992626;28;20465;-58
2021/05/13 11:20:24;;;;;;;0.40;0.20;;;;;;;20.85;52.42;99241.94;4993224;28;20461;-59
2021/05/13 11:22:57;;;;;;;0.63;0.60;;;;;;;21.06;54.36;99237.34;4975197;28;20453;-59
2021/05/13 11:25:42;;;;;;;0.40;0.20;;;;;;;21.23;54.49;99233.97;4979497;28;20428;-58
2021/05/13 11:28:18;;;;;;;0.40;0.20;;;;;;;21.27;53.31;99234.59;4975001;28;20445;-59
2021/05/13 11:30:46;;;;;;;0.40;0.30;;;;;;;21.49;51.89;99228.94;4979071;28;20461;-59
2021/05/13 11:33:13;;;;;;;0.40;0.30;;;;;;;21.84;51.07;99224.88;4992151;28;20903;-59
2021/05/13 11:35:40;;;;;;;0.40;0.20;;;;;;;20.65;50.60;99233.72;4992269;28;20544;-59
2021/05/13 11:38:22;;;;;;;1.33;1.23;;;;;;;20.61;50.21;99232.28;4992687;28;20838;-59
2021/05/13 11:40:53;;;;;;;0.40;0.20;;;;;;;20.66;51.42;99221.94;4973102;28;20447;-59
2021/05/13 11:43:24;;;;;;;0.40;0.20;;;;;;;20.50;51.02;99232.34;4986856;28;20834;-59
2021/05/13 11:45:54;;;;;;;0.40;0.20;;;;;;;20.21;50.84;99229.44;4975004;28;20536;-58
2021/05/13 11:48:32;;;;;;;0.40;0.20;;;;;;;20.41;50.56;99223.19;4982463;28;20831;-59
2021/05/13 11:51:08;;;;;;;0.40;0.20;;;;;;;20.79;49.29;99227.13;4992220;28;20453;-59
2021/05/13 11:53:36;;;;;;;0.40;0.20;;;;;;;20.65;51.82;99228.31;4992181;28;20451;-59
2021/05/13 11:56:04;;;;;;;0.40;0.20;;;;;;;20.55;52.07;99221.16;4992759;28;20486;-58
2021/05/13 11:58:48;;;;;;;0.40;0.20;;;;;;;20.66;52.05;99226.47;4994893;28;20474;-58
2021/05/13 12:01:40;;;;;;;0.40;0.30;;;;;;;20.74;52.59;99223.13;4991627;28;21015;-58
2021/05/13 12:04:09;;;;;;;0.40;0.20;;;;;;;20.55;51.71;99230.09;4992008;28;20900;-58
2021/05/13 12:06:57;;;;;;;0.40;0.20;;;;;;;20.23;51.36;99221.22;4991880;28;20457;-58